sensor_id;sensor_type;location;lat;lon;timestamp;P1;durP1;ratioP1;P2;durP2;ratioP2
42096;SDS011;27754;45.414;11.084;2023-04-15T00:01:50;6.25;;;3.15;;
42096;SDS011;27754;45.414;11.084;2023-04-15T00:04:18;7.72;;;3.50;;
42096;SDS011;27754;45.414;11.084;2023-04-15T00:06:49;5.03;;;3.30;;
42096;SDS011;27754;45.414;11.084;2023-04-15T00:09:18;4.60;;;3.17;;
42096;SDS011;27754;45.414;11.084;2023-04-15T00:11:46;4.65;;;3.20;;
42096;SDS011;27754;45.414;11.084;2023-04-15T00:14:12;5.07;;;3.05;;
42096;SDS011;27754;45.414;11.084;2023-04-15T00:16:39;4.82;;;3.53;;
42096;SDS011;27754;45.414;11.084;2023-04-15T00:19:06;9.60;;;3.75;;
42096;SDS011;27754;45.414;11.084;2023-04-15T00:21:33;6.47;;;3.92;;
42096;SDS011;27754;45.414;11.084;2023-04-15T00:24:01;6.82;;;4.30;;
42096;SDS011;27754;45.414;11.084;2023-04-15T00:26:27;5.63;;;3.88;;
42096;SDS011;27754;45.414;11.084;2023-04-15T00:28:55;5.85;;;4.03;;
42096;SDS011;27754;45.414;11.084;2023-04-15T00:31:22;6.70;;;3.95;;
42096;SDS011;27754;45.414;11.084;2023-04-15T00:33:49;6.15;;;4.50;;
42096;SDS011;27754;45.414;11.084;2023-04-15T00:36:15;5.05;;;3.75;;
42096;SDS011;27754;45.414;11.084;2023-04-15T00:38:42;7.45;;;4.05;;
42096;SDS011;27754;45.414;11.084;2023-04-15T00:41:09;5.97;;;3.83;;
42096;SDS011;27754;45.414;11.084;2023-04-15T00:43:37;5.95;;;4.30;;
42096;SDS011;27754;45.414;11.084;2023-04-15T00:46:04;9.65;;;4.20;;
42096;SDS011;27754;45.414;11.084;2023-04-15T00:48:32;9.70;;;4.72;;
42096;SDS011;27754;45.414;11.084;2023-04-15T00:50:59;9.38;;;5.07;;
42096;SDS011;27754;45.414;11.084;2023-04-15T00:53:27;9.07;;;4.90;;
42096;SDS011;27754;45.414;11.084;2023-04-15T00:55:54;6.93;;;4.85;;
42096;SDS011;27754;45.414;11.084;2023-04-15T00:58:21;8.63;;;4.90;;
42096;SDS011;27754;45.414;11.084;2023-04-15T01:00:48;6.63;;;4.50;;
42096;SDS011;27754;45.414;11.084;2023-04-15T01:03:19;6.65;;;4.38;;
42096;SDS011;27754;45.414;11.084;2023-04-15T01:05:46;10.30;;;4.82;;
42096;SDS011;27754;45.414;11.084;2023-04-15T01:08:14;9.13;;;4.72;;
42096;SDS011;27754;45.414;11.084;2023-04-15T01:10:41;6.80;;;4.75;;
42096;SDS011;27754;45.414;11.084;2023-04-15T01:13:09;8.73;;;4.80;;
42096;SDS011;27754;45.414;11.084;2023-04-15T01:15:36;8.68;;;5.00;;
42096;SDS011;27754;45.414;11.084;2023-04-15T01:18:03;10.13;;;4.93;;
42096;SDS011;27754;45.414;11.084;2023-04-15T01:20:30;7.25;;;4.72;;
42096;SDS011;27754;45.414;11.084;2023-04-15T01:22:58;7.10;;;4.68;;
42096;SDS011;27754;45.414;11.084;2023-04-15T01:25:29;7.57;;;4.25;;
42096;SDS011;27754;45.414;11.084;2023-04-15T01:27:58;10.90;;;4.38;;
42096;SDS011;27754;45.414;11.084;2023-04-15T01:30:26;9.70;;;4.88;;
42096;SDS011;27754;45.414;11.084;2023-04-15T01:32:53;6.93;;;5.00;;
42096;SDS011;27754;45.414;11.084;2023-04-15T01:35:20;7.40;;;4.65;;
42096;SDS011;27754;45.414;11.084;2023-04-15T01:37:50;7.38;;;4.78;;
42096;SDS011;27754;45.414;11.084;2023-04-15T01:40:17;6.70;;;4.78;;
42096;SDS011;27754;45.414;11.084;2023-04-15T01:42:44;6.25;;;4.55;;
42096;SDS011;27754;45.414;11.084;2023-04-15T01:45:13;9.55;;;5.38;;
42096;SDS011;27754;45.414;11.084;2023-04-15T01:47:40;7.90;;;4.65;;
42096;SDS011;27754;45.414;11.084;2023-04-15T01:50:08;8.63;;;5.07;;
42096;SDS011;27754;45.414;11.084;2023-04-15T01:52:35;8.48;;;4.80;;
42096;SDS011;27754;45.414;11.084;2023-04-15T01:55:02;11.40;;;5.20;;
42096;SDS011;27754;45.414;11.084;2023-04-15T01:57:30;8.20;;;4.93;;
42096;SDS011;27754;45.414;11.084;2023-04-15T01:59:57;7.03;;;4.30;;
42096;SDS011;27754;45.414;11.084;2023-04-15T02:02:24;15.45;;;4.97;;
42096;SDS011;27754;45.414;11.084;2023-04-15T02:04:55;6.47;;;4.53;;
42096;SDS011;27754;45.414;11.084;2023-04-15T02:07:21;8.00;;;5.10;;
42096;SDS011;27754;45.414;11.084;2023-04-15T02:09:49;8.55;;;4.82;;
42096;SDS011;27754;45.414;11.084;2023-04-15T02:12:16;11.35;;;5.38;;
42096;SDS011;27754;45.414;11.084;2023-04-15T02:14:43;11.23;;;5.63;;
42096;SDS011;27754;45.414;11.084;2023-04-15T02:17:10;7.13;;;5.22;;
42096;SDS011;27754;45.414;11.084;2023-04-15T02:19:41;7.53;;;5.70;;
42096;SDS011;27754;45.414;11.084;2023-04-15T02:22:08;6.85;;;4.78;;
42096;SDS011;27754;45.414;11.084;2023-04-15T02:24:38;7.15;;;4.18;;
42096;SDS011;27754;45.414;11.084;2023-04-15T02:27:05;7.10;;;4.00;;
42096;SDS011;27754;45.414;11.084;2023-04-15T02:29:32;6.43;;;4.10;;
42096;SDS011;27754;45.414;11.084;2023-04-15T02:31:59;8.32;;;3.60;;
42096;SDS011;27754;45.414;11.084;2023-04-15T02:34:26;6.45;;;4.15;;
42096;SDS011;27754;45.414;11.084;2023-04-15T02:36:55;7.68;;;3.90;;
42096;SDS011;27754;45.414;11.084;2023-04-15T02:39:23;6.25;;;3.80;;
42096;SDS011;27754;45.414;11.084;2023-04-15T02:41:50;8.88;;;4.25;;
42096;SDS011;27754;45.414;11.084;2023-04-15T02:44:17;7.93;;;4.03;;
42096;SDS011;27754;45.414;11.084;2023-04-15T02:46:50;5.72;;;4.25;;
42096;SDS011;27754;45.414;11.084;2023-04-15T02:49:20;7.68;;;4.32;;
42096;SDS011;27754;45.414;11.084;2023-04-15T02:51:48;8.43;;;4.28;;
42096;SDS011;27754;45.414;11.084;2023-04-15T02:54:18;9.70;;;4.40;;
42096;SDS011;27754;45.414;11.084;2023-04-15T02:56:48;6.45;;;4.07;;
42096;SDS011;27754;45.414;11.084;2023-04-15T02:59:15;9.38;;;4.30;;
42096;SDS011;27754;45.414;11.084;2023-04-15T03:01:42;5.13;;;4.00;;
42096;SDS011;27754;45.414;11.084;2023-04-15T03:04:09;9.35;;;4.00;;
42096;SDS011;27754;45.414;11.084;2023-04-15T03:06:37;5.68;;;4.18;;
42096;SDS011;27754;45.414;11.084;2023-04-15T03:09:06;6.40;;;4.03;;
42096;SDS011;27754;45.414;11.084;2023-04-15T03:11:34;6.30;;;4.65;;
42096;SDS011;27754;45.414;11.084;2023-04-15T03:14:07;6.70;;;4.03;;
42096;SDS011;27754;45.414;11.084;2023-04-15T03:16:38;7.50;;;4.03;;
42096;SDS011;27754;45.414;11.084;2023-04-15T03:19:05;7.65;;;4.70;;
42096;SDS011;27754;45.414;11.084;2023-04-15T03:21:32;7.03;;;4.47;;
42096;SDS011;27754;45.414;11.084;2023-04-15T03:23:59;9.75;;;4.50;;
42096;SDS011;27754;45.414;11.084;2023-04-15T03:26:27;8.73;;;4.85;;
42096;SDS011;27754;45.414;11.084;2023-04-15T03:28:59;6.45;;;4.65;;
42096;SDS011;27754;45.414;11.084;2023-04-15T03:31:27;6.05;;;4.55;;
42096;SDS011;27754;45.414;11.084;2023-04-15T03:33:54;7.05;;;4.65;;
42096;SDS011;27754;45.414;11.084;2023-04-15T03:36:22;5.90;;;4.32;;
42096;SDS011;27754;45.414;11.084;2023-04-15T03:38:49;6.32;;;4.85;;
42096;SDS011;27754;45.414;11.084;2023-04-15T03:41:15;8.15;;;4.68;;
42096;SDS011;27754;45.414;11.084;2023-04-15T03:43:42;6.80;;;4.97;;
42096;SDS011;27754;45.414;11.084;2023-04-15T03:46:09;5.80;;;4.63;;
42096;SDS011;27754;45.414;11.084;2023-04-15T03:48:36;7.18;;;4.78;;
42096;SDS011;27754;45.414;11.084;2023-04-15T03:51:03;7.78;;;5.05;;
42096;SDS011;27754;45.414;11.084;2023-04-15T03:53:30;8.50;;;5.65;;
42096;SDS011;27754;45.414;11.084;2023-04-15T03:55:57;7.90;;;5.28;;
42096;SDS011;27754;45.414;11.084;2023-04-15T03:58:24;11.18;;;5.35;;
42096;SDS011;27754;45.414;11.084;2023-04-15T04:00:50;6.95;;;5.47;;
42096;SDS011;27754;45.414;11.084;2023-04-15T04:03:18;9.90;;;8.57;;
42096;SDS011;27754;45.414;11.084;2023-04-15T04:05:45;10.30;;;7.90;;
42096;SDS011;27754;45.414;11.084;2023-04-15T04:08:12;6.88;;;5.47;;
42096;SDS011;27754;45.414;11.084;2023-04-15T04:10:40;6.65;;;4.97;;
42096;SDS011;27754;45.414;11.084;2023-04-15T04:13:08;7.57;;;5.35;;
42096;SDS011;27754;45.414;11.084;2023-04-15T04:15:34;7.72;;;4.50;;
42096;SDS011;27754;45.414;11.084;2023-04-15T04:18:01;6.57;;;4.65;;
42096;SDS011;27754;45.414;11.084;2023-04-15T04:20:29;8.68;;;4.95;;
42096;SDS011;27754;45.414;11.084;2023-04-15T04:22:57;10.82;;;5.22;;
42096;SDS011;27754;45.414;11.084;2023-04-15T04:25:24;6.70;;;4.50;;
42096;SDS011;27754;45.414;11.084;2023-04-15T04:27:51;7.43;;;4.93;;
42096;SDS011;27754;45.414;11.084;2023-04-15T04:30:18;6.88;;;4.47;;
42096;SDS011;27754;45.414;11.084;2023-04-15T04:32:45;6.75;;;4.78;;
42096;SDS011;27754;45.414;11.084;2023-04-15T04:35:12;9.63;;;5.03;;
42096;SDS011;27754;45.414;11.084;2023-04-15T04:37:39;7.65;;;4.35;;
42096;SDS011;27754;45.414;11.084;2023-04-15T04:40:06;8.50;;;4.70;;
42096;SDS011;27754;45.414;11.084;2023-04-15T04:42:33;6.72;;;4.25;;
42096;SDS011;27754;45.414;11.084;2023-04-15T04:45:02;6.60;;;3.95;;
42096;SDS011;27754;45.414;11.084;2023-04-15T04:47:29;8.82;;;4.47;;
42096;SDS011;27754;45.414;11.084;2023-04-15T04:49:56;7.40;;;4.53;;
42096;SDS011;27754;45.414;11.084;2023-04-15T04:52:23;6.47;;;4.75;;
42096;SDS011;27754;45.414;11.084;2023-04-15T04:54:50;6.93;;;4.95;;
42096;SDS011;27754;45.414;11.084;2023-04-15T04:57:17;9.07;;;4.20;;
42096;SDS011;27754;45.414;11.084;2023-04-15T04:59:44;6.55;;;4.35;;
42096;SDS011;27754;45.414;11.084;2023-04-15T05:02:11;8.48;;;4.30;;
42096;SDS011;27754;45.414;11.084;2023-04-15T05:04:38;6.47;;;4.43;;
42096;SDS011;27754;45.414;11.084;2023-04-15T05:07:07;7.28;;;3.72;;
42096;SDS011;27754;45.414;11.084;2023-04-15T05:09:33;11.48;;;4.20;;
42096;SDS011;27754;45.414;11.084;2023-04-15T05:12:05;11.27;;;4.32;;
42096;SDS011;27754;45.414;11.084;2023-04-15T05:14:33;5.47;;;3.53;;
42096;SDS011;27754;45.414;11.084;2023-04-15T05:17:00;7.38;;;3.95;;
42096;SDS011;27754;45.414;11.084;2023-04-15T05:19:26;9.93;;;3.75;;
42096;SDS011;27754;45.414;11.084;2023-04-15T05:21:53;4.53;;;3.25;;
42096;SDS011;27754;45.414;11.084;2023-04-15T05:24:20;6.38;;;3.28;;
42096;SDS011;27754;45.414;11.084;2023-04-15T05:26:47;6.82;;;3.30;;
42096;SDS011;27754;45.414;11.084;2023-04-15T05:29:14;13.18;;;3.75;;
42096;SDS011;27754;45.414;11.084;2023-04-15T05:31:41;6.70;;;3.55;;
42096;SDS011;27754;45.414;11.084;2023-04-15T05:34:08;12.13;;;3.70;;
42096;SDS011;27754;45.414;11.084;2023-04-15T05:36:37;10.30;;;3.65;;
42096;SDS011;27754;45.414;11.084;2023-04-15T05:39:03;10.68;;;4.07;;
42096;SDS011;27754;45.414;11.084;2023-04-15T05:41:30;12.05;;;3.47;;
42096;SDS011;27754;45.414;11.084;2023-04-15T05:43:57;15.68;;;3.85;;
42096;SDS011;27754;45.414;11.084;2023-04-15T05:46:24;13.38;;;3.55;;
42096;SDS011;27754;45.414;11.084;2023-04-15T05:48:51;19.13;;;4.07;;
42096;SDS011;27754;45.414;11.084;2023-04-15T05:51:21;10.23;;;4.68;;
42096;SDS011;27754;45.414;11.084;2023-04-15T05:53:48;18.15;;;4.30;;
42096;SDS011;27754;45.414;11.084;2023-04-15T05:56:14;10.10;;;4.05;;
42096;SDS011;27754;45.414;11.084;2023-04-15T05:58:41;14.23;;;4.07;;
42096;SDS011;27754;45.414;11.084;2023-04-15T06:01:08;18.67;;;4.20;;
42096;SDS011;27754;45.414;11.084;2023-04-15T06:03:36;21.90;;;4.93;;
42096;SDS011;27754;45.414;11.084;2023-04-15T06:06:04;9.18;;;4.05;;
42096;SDS011;27754;45.414;11.084;2023-04-15T06:08:31;7.00;;;3.80;;
42096;SDS011;27754;45.414;11.084;2023-04-15T06:10:58;8.35;;;3.28;;
42096;SDS011;27754;45.414;11.084;2023-04-15T06:13:24;13.93;;;3.22;;
42096;SDS011;27754;45.414;11.084;2023-04-15T06:15:52;8.90;;;2.65;;
42096;SDS011;27754;45.414;11.084;2023-04-15T06:18:19;12.40;;;3.47;;
42096;SDS011;27754;45.414;11.084;2023-04-15T06:20:46;6.63;;;3.25;;
42096;SDS011;27754;45.414;11.084;2023-04-15T06:23:13;14.30;;;3.20;;
42096;SDS011;27754;45.414;11.084;2023-04-15T06:25:40;11.43;;;3.33;;
42096;SDS011;27754;45.414;11.084;2023-04-15T06:28:07;14.85;;;4.03;;
42096;SDS011;27754;45.414;11.084;2023-04-15T06:30:34;26.00;;;4.50;;
42096;SDS011;27754;45.414;11.084;2023-04-15T06:33:02;11.27;;;3.97;;
42096;SDS011;27754;45.414;11.084;2023-04-15T06:35:30;8.38;;;4.28;;
42096;SDS011;27754;45.414;11.084;2023-04-15T06:37:57;7.65;;;3.65;;
42096;SDS011;27754;45.414;11.084;2023-04-15T06:40:24;5.13;;;3.22;;
42096;SDS011;27754;45.414;11.084;2023-04-15T06:42:52;10.57;;;3.13;;
42096;SDS011;27754;45.414;11.084;2023-04-15T06:45:19;10.18;;;3.55;;
42096;SDS011;27754;45.414;11.084;2023-04-15T06:47:45;11.23;;;3.63;;
42096;SDS011;27754;45.414;11.084;2023-04-15T06:50:12;10.02;;;3.33;;
42096;SDS011;27754;45.414;11.084;2023-04-15T06:52:39;3.58;;;1.80;;
42096;SDS011;27754;45.414;11.084;2023-04-15T06:55:06;3.13;;;1.75;;
42096;SDS011;27754;45.414;11.084;2023-04-15T06:57:34;4.05;;;2.08;;
42096;SDS011;27754;45.414;11.084;2023-04-15T07:00:01;4.90;;;1.92;;
42096;SDS011;27754;45.414;11.084;2023-04-15T07:02:31;3.83;;;2.20;;
42096;SDS011;27754;45.414;11.084;2023-04-15T07:04:58;2.33;;;1.60;;
42096;SDS011;27754;45.414;11.084;2023-04-15T07:07:25;3.33;;;1.60;;
42096;SDS011;27754;45.414;11.084;2023-04-15T07:09:51;3.03;;;1.50;;
42096;SDS011;27754;45.414;11.084;2023-04-15T07:12:19;3.67;;;1.80;;
42096;SDS011;27754;45.414;11.084;2023-04-15T07:14:46;4.00;;;1.70;;
42096;SDS011;27754;45.414;11.084;2023-04-15T07:17:13;3.80;;;1.40;;
42096;SDS011;27754;45.414;11.084;2023-04-15T07:19:39;6.95;;;2.25;;
42096;SDS011;27754;45.414;11.084;2023-04-15T07:22:07;2.85;;;1.92;;
42096;SDS011;27754;45.414;11.084;2023-04-15T07:24:34;3.70;;;2.00;;
42096;SDS011;27754;45.414;11.084;2023-04-15T07:27:01;3.17;;;1.98;;
42096;SDS011;27754;45.414;11.084;2023-04-15T07:29:29;5.97;;;2.13;;
42096;SDS011;27754;45.414;11.084;2023-04-15T07:31:56;2.03;;;1.50;;
42096;SDS011;27754;45.414;11.084;2023-04-15T07:34:23;5.40;;;1.63;;
42096;SDS011;27754;45.414;11.084;2023-04-15T07:36:51;4.85;;;1.80;;
42096;SDS011;27754;45.414;11.084;2023-04-15T07:39:17;2.85;;;1.60;;
42096;SDS011;27754;45.414;11.084;2023-04-15T07:41:45;4.35;;;2.22;;
42096;SDS011;27754;45.414;11.084;2023-04-15T07:44:12;5.50;;;2.15;;
42096;SDS011;27754;45.414;11.084;2023-04-15T07:46:38;7.93;;;1.70;;
42096;SDS011;27754;45.414;11.084;2023-04-15T07:49:06;4.20;;;1.98;;
42096;SDS011;27754;45.414;11.084;2023-04-15T07:51:33;2.83;;;1.73;;
42096;SDS011;27754;45.414;11.084;2023-04-15T07:53:59;3.53;;;1.60;;
42096;SDS011;27754;45.414;11.084;2023-04-15T07:56:27;4.65;;;1.80;;
42096;SDS011;27754;45.414;11.084;2023-04-15T07:58:53;7.07;;;1.60;;
42096;SDS011;27754;45.414;11.084;2023-04-15T08:01:20;2.63;;;1.88;;
42096;SDS011;27754;45.414;11.084;2023-04-15T08:03:47;4.22;;;2.13;;
42096;SDS011;27754;45.414;11.084;2023-04-15T08:06:15;4.55;;;1.70;;
42096;SDS011;27754;45.414;11.084;2023-04-15T08:08:42;3.05;;;1.70;;
42096;SDS011;27754;45.414;11.084;2023-04-15T08:11:09;2.83;;;1.83;;
42096;SDS011;27754;45.414;11.084;2023-04-15T08:13:36;6.25;;;1.92;;
42096;SDS011;27754;45.414;11.084;2023-04-15T08:16:16;5.53;;;2.30;;
42096;SDS011;27754;45.414;11.084;2023-04-15T08:18:45;5.05;;;1.70;;
42096;SDS011;27754;45.414;11.084;2023-04-15T08:21:12;4.85;;;2.00;;
42096;SDS011;27754;45.414;11.084;2023-04-15T08:23:40;4.97;;;2.63;;
42096;SDS011;27754;45.414;11.084;2023-04-15T08:26:08;3.25;;;1.90;;
42096;SDS011;27754;45.414;11.084;2023-04-15T08:28:36;4.40;;;1.95;;
42096;SDS011;27754;45.414;11.084;2023-04-15T08:31:04;4.32;;;2.78;;
42096;SDS011;27754;45.414;11.084;2023-04-15T08:33:31;6.03;;;2.70;;
42096;SDS011;27754;45.414;11.084;2023-04-15T08:35:58;5.00;;;2.13;;
42096;SDS011;27754;45.414;11.084;2023-04-15T08:38:25;3.33;;;1.90;;
42096;SDS011;27754;45.414;11.084;2023-04-15T08:40:52;4.35;;;1.70;;
42096;SDS011;27754;45.414;11.084;2023-04-15T08:43:21;2.92;;;2.05;;
42096;SDS011;27754;45.414;11.084;2023-04-15T08:45:53;3.55;;;2.03;;
42096;SDS011;27754;45.414;11.084;2023-04-15T08:48:21;5.50;;;2.20;;
42096;SDS011;27754;45.414;11.084;2023-04-15T08:50:49;3.38;;;2.00;;
42096;SDS011;27754;45.414;11.084;2023-04-15T08:53:17;5.22;;;2.75;;
42096;SDS011;27754;45.414;11.084;2023-04-15T08:55:45;4.00;;;2.28;;
42096;SDS011;27754;45.414;11.084;2023-04-15T08:58:16;3.80;;;1.95;;
42096;SDS011;27754;45.414;11.084;2023-04-15T09:00:45;2.83;;;2.03;;
42096;SDS011;27754;45.414;11.084;2023-04-15T09:03:14;6.82;;;2.28;;
42096;SDS011;27754;45.414;11.084;2023-04-15T09:05:43;4.47;;;2.35;;
42096;SDS011;27754;45.414;11.084;2023-04-15T09:08:10;3.42;;;2.25;;
42096;SDS011;27754;45.414;11.084;2023-04-15T09:10:37;4.07;;;2.55;;
42096;SDS011;27754;45.414;11.084;2023-04-15T09:13:04;6.63;;;3.03;;
42096;SDS011;27754;45.414;11.084;2023-04-15T09:15:30;4.25;;;2.85;;
42096;SDS011;27754;45.414;11.084;2023-04-15T09:17:59;10.65;;;4.05;;
42096;SDS011;27754;45.414;11.084;2023-04-15T09:20:26;5.05;;;2.97;;
42096;SDS011;27754;45.414;11.084;2023-04-15T09:22:53;8.98;;;3.15;;
42096;SDS011;27754;45.414;11.084;2023-04-15T09:27:50;7.35;;;3.05;;
42096;SDS011;27754;45.414;11.084;2023-04-15T09:30:18;8.23;;;3.53;;
42096;SDS011;27754;45.414;11.084;2023-04-15T09:35:22;6.20;;;3.65;;
42096;SDS011;27754;45.414;11.084;2023-04-15T09:37:51;5.75;;;3.47;;
42096;SDS011;27754;45.414;11.084;2023-04-15T09:40:37;7.63;;;3.40;;
42096;SDS011;27754;45.414;11.084;2023-04-15T09:43:09;5.00;;;3.25;;
42096;SDS011;27754;45.414;11.084;2023-04-15T09:45:40;6.28;;;3.78;;
42096;SDS011;27754;45.414;11.084;2023-04-15T09:48:25;5.70;;;3.35;;
42096;SDS011;27754;45.414;11.084;2023-04-15T09:50:54;3.67;;;3.15;;
42096;SDS011;27754;45.414;11.084;2023-04-15T09:53:24;5.85;;;3.53;;
42096;SDS011;27754;45.414;11.084;2023-04-15T09:55:52;7.10;;;3.50;;
42096;SDS011;27754;45.414;11.084;2023-04-15T09:58:22;4.30;;;3.28;;
42096;SDS011;27754;45.414;11.084;2023-04-15T10:00:50;5.53;;;3.50;;
42096;SDS011;27754;45.414;11.084;2023-04-15T10:03:19;5.03;;;3.28;;
42096;SDS011;27754;45.414;11.084;2023-04-15T10:05:49;5.07;;;3.75;;
42096;SDS011;27754;45.414;11.084;2023-04-15T10:08:18;4.35;;;3.25;;
42096;SDS011;27754;45.414;11.084;2023-04-15T10:10:47;6.15;;;3.50;;
42096;SDS011;27754;45.414;11.084;2023-04-15T10:13:17;7.13;;;3.67;;
42096;SDS011;27754;45.414;11.084;2023-04-15T10:15:49;7.13;;;4.38;;
42096;SDS011;27754;45.414;11.084;2023-04-15T10:18:19;6.07;;;3.50;;
42096;SDS011;27754;45.414;11.084;2023-04-15T10:20:49;4.97;;;3.47;;
42096;SDS011;27754;45.414;11.084;2023-04-15T10:23:16;4.35;;;3.60;;
42096;SDS011;27754;45.414;11.084;2023-04-15T10:25:44;5.75;;;3.72;;
42096;SDS011;27754;45.414;11.084;2023-04-15T10:28:12;4.10;;;3.30;;
42096;SDS011;27754;45.414;11.084;2023-04-15T10:30:41;4.68;;;3.33;;
42096;SDS011;27754;45.414;11.084;2023-04-15T10:33:09;4.55;;;3.42;;
42096;SDS011;27754;45.414;11.084;2023-04-15T10:35:36;5.65;;;4.38;;
42096;SDS011;27754;45.414;11.084;2023-04-15T10:38:47;5.65;;;3.90;;
42096;SDS011;27754;45.414;11.084;2023-04-15T10:44:00;5.28;;;3.78;;
42096;SDS011;27754;45.414;11.084;2023-04-15T10:46:37;5.00;;;3.92;;
42096;SDS011;27754;45.414;11.084;2023-04-15T10:51:34;8.98;;;4.80;;
42096;SDS011;27754;45.414;11.084;2023-04-15T10:54:13;7.03;;;5.22;;
42096;SDS011;27754;45.414;11.084;2023-04-15T10:56:43;6.72;;;4.78;;
42096;SDS011;27754;45.414;11.084;2023-04-15T10:59:10;6.15;;;4.35;;
42096;SDS011;27754;45.414;11.084;2023-04-15T11:01:48;6.97;;;4.10;;
42096;SDS011;27754;45.414;11.084;2023-04-15T11:05:03;6.53;;;4.78;;
42096;SDS011;27754;45.414;11.084;2023-04-15T11:07:59;7.57;;;4.57;;
42096;SDS011;27754;45.414;11.084;2023-04-15T11:13:25;7.45;;;4.40;;
42096;SDS011;27754;45.414;11.084;2023-04-15T11:15:54;8.05;;;4.57;;
42096;SDS011;27754;45.414;11.084;2023-04-15T11:18:26;6.53;;;4.47;;
42096;SDS011;27754;45.414;11.084;2023-04-15T11:20:59;5.90;;;4.50;;
42096;SDS011;27754;45.414;11.084;2023-04-15T11:23:32;8.15;;;5.07;;
42096;SDS011;27754;45.414;11.084;2023-04-15T11:26:05;5.90;;;4.18;;
42096;SDS011;27754;45.414;11.084;2023-04-15T11:28:35;10.57;;;4.20;;
42096;SDS011;27754;45.414;11.084;2023-04-15T11:31:05;8.10;;;4.80;;
42096;SDS011;27754;45.414;11.084;2023-04-15T11:33:33;11.05;;;5.03;;
42096;SDS011;27754;45.414;11.084;2023-04-15T11:36:01;6.55;;;4.60;;
42096;SDS011;27754;45.414;11.084;2023-04-15T11:38:29;6.10;;;4.13;;
42096;SDS011;27754;45.414;11.084;2023-04-15T11:40:56;7.20;;;4.13;;
42096;SDS011;27754;45.414;11.084;2023-04-15T11:43:23;5.47;;;4.13;;
42096;SDS011;27754;45.414;11.084;2023-04-15T11:45:58;7.85;;;4.07;;
42096;SDS011;27754;45.414;11.084;2023-04-15T11:51:04;6.47;;;3.80;;
42096;SDS011;27754;45.414;11.084;2023-04-15T11:53:40;9.15;;;4.03;;
42096;SDS011;27754;45.414;11.084;2023-04-15T11:56:24;6.63;;;4.35;;
42096;SDS011;27754;45.414;11.084;2023-04-15T11:58:53;5.35;;;3.50;;
42096;SDS011;27754;45.414;11.084;2023-04-15T12:01:34;8.98;;;3.58;;
42096;SDS011;27754;45.414;11.084;2023-04-15T12:04:01;8.65;;;4.28;;
42096;SDS011;27754;45.414;11.084;2023-04-15T12:06:38;5.43;;;2.83;;
42096;SDS011;27754;45.414;11.084;2023-04-15T12:11:33;3.70;;;2.80;;
42096;SDS011;27754;45.414;11.084;2023-04-15T12:14:12;8.18;;;3.08;;
42096;SDS011;27754;45.414;11.084;2023-04-15T12:16:45;5.97;;;3.07;;
42096;SDS011;27754;45.414;11.084;2023-04-15T12:19:27;3.67;;;2.25;;
42096;SDS011;27754;45.414;11.084;2023-04-15T12:21:59;5.65;;;3.00;;
42096;SDS011;27754;45.414;11.084;2023-04-15T12:24:30;5.90;;;2.80;;
42096;SDS011;27754;45.414;11.084;2023-04-15T12:27:02;4.13;;;2.40;;
42096;SDS011;27754;45.414;11.084;2023-04-15T12:29:31;4.13;;;2.47;;
42096;SDS011;27754;45.414;11.084;2023-04-15T12:32:06;3.28;;;2.20;;
42096;SDS011;27754;45.414;11.084;2023-04-15T12:37:03;11.63;;;2.90;;
42096;SDS011;27754;45.414;11.084;2023-04-15T12:39:35;6.97;;;2.95;;
42096;SDS011;27754;45.414;11.084;2023-04-15T12:42:04;5.47;;;2.80;;
42096;SDS011;27754;45.414;11.084;2023-04-15T12:44:32;6.57;;;2.30;;
42096;SDS011;27754;45.414;11.084;2023-04-15T12:46:59;11.73;;;2.53;;
42096;SDS011;27754;45.414;11.084;2023-04-15T12:49:26;4.80;;;2.60;;
42096;SDS011;27754;45.414;11.084;2023-04-15T12:51:54;4.50;;;2.10;;
42096;SDS011;27754;45.414;11.084;2023-04-15T12:54:22;4.50;;;2.38;;
42096;SDS011;27754;45.414;11.084;2023-04-15T12:56:49;3.90;;;2.30;;
42096;SDS011;27754;45.414;11.084;2023-04-15T12:59:16;6.82;;;2.30;;
42096;SDS011;27754;45.414;11.084;2023-04-15T13:01:44;3.95;;;2.17;;
42096;SDS011;27754;45.414;11.084;2023-04-15T13:04:12;7.65;;;2.78;;
42096;SDS011;27754;45.414;11.084;2023-04-15T13:06:40;2.95;;;2.10;;
42096;SDS011;27754;45.414;11.084;2023-04-15T13:09:07;4.20;;;2.13;;
42096;SDS011;27754;45.414;11.084;2023-04-15T13:11:34;3.85;;;2.13;;
42096;SDS011;27754;45.414;11.084;2023-04-15T13:14:05;4.40;;;2.00;;
42096;SDS011;27754;45.414;11.084;2023-04-15T13:16:33;3.92;;;1.75;;
42096;SDS011;27754;45.414;11.084;2023-04-15T13:19:01;6.75;;;2.05;;
42096;SDS011;27754;45.414;11.084;2023-04-15T13:21:29;2.60;;;1.50;;
42096;SDS011;27754;45.414;11.084;2023-04-15T13:24:00;4.75;;;2.00;;
42096;SDS011;27754;45.414;11.084;2023-04-15T13:26:27;4.18;;;2.00;;
42096;SDS011;27754;45.414;11.084;2023-04-15T13:28:54;5.15;;;1.88;;
42096;SDS011;27754;45.414;11.084;2023-04-15T13:31:21;3.30;;;1.63;;
42096;SDS011;27754;45.414;11.084;2023-04-15T13:33:49;2.88;;;1.83;;
42096;SDS011;27754;45.414;11.084;2023-04-15T13:36:16;4.20;;;2.00;;
42096;SDS011;27754;45.414;11.084;2023-04-15T13:38:42;3.05;;;1.67;;
42096;SDS011;27754;45.414;11.084;2023-04-15T13:41:09;5.85;;;1.90;;
42096;SDS011;27754;45.414;11.084;2023-04-15T13:43:36;3.75;;;1.48;;
42096;SDS011;27754;45.414;11.084;2023-04-15T13:46:03;3.83;;;1.58;;
42096;SDS011;27754;45.414;11.084;2023-04-15T13:48:30;4.32;;;1.95;;
42096;SDS011;27754;45.414;11.084;2023-04-15T13:50:57;6.70;;;1.98;;
42096;SDS011;27754;45.414;11.084;2023-04-15T13:53:24;3.33;;;1.75;;
42096;SDS011;27754;45.414;11.084;2023-04-15T13:56:08;2.08;;;1.48;;
42096;SDS011;27754;45.414;11.084;2023-04-15T13:58:38;4.97;;;2.05;;
42096;SDS011;27754;45.414;11.084;2023-04-15T14:01:06;3.72;;;1.60;;
42096;SDS011;27754;45.414;11.084;2023-04-15T14:03:35;3.88;;;1.65;;
42096;SDS011;27754;45.414;11.084;2023-04-15T14:06:03;8.23;;;1.70;;
42096;SDS011;27754;45.414;11.084;2023-04-15T14:08:31;2.28;;;1.60;;
42096;SDS011;27754;45.414;11.084;2023-04-15T14:10:58;23.75;;;3.03;;
42096;SDS011;27754;45.414;11.084;2023-04-15T14:13:25;3.53;;;1.45;;
42096;SDS011;27754;45.414;11.084;2023-04-15T14:15:52;2.80;;;1.77;;
42096;SDS011;27754;45.414;11.084;2023-04-15T14:18:19;4.05;;;1.65;;
42096;SDS011;27754;45.414;11.084;2023-04-15T14:20:46;5.45;;;2.35;;
42096;SDS011;27754;45.414;11.084;2023-04-15T14:23:13;3.67;;;1.48;;
42096;SDS011;27754;45.414;11.084;2023-04-15T14:25:40;5.07;;;1.58;;
42096;SDS011;27754;45.414;11.084;2023-04-15T14:28:07;4.40;;;1.40;;
42096;SDS011;27754;45.414;11.084;2023-04-15T14:30:35;2.80;;;1.40;;
42096;SDS011;27754;45.414;11.084;2023-04-15T14:33:02;5.22;;;1.55;;
42096;SDS011;27754;45.414;11.084;2023-04-15T14:35:29;2.83;;;1.42;;
42096;SDS011;27754;45.414;11.084;2023-04-15T14:37:56;4.82;;;1.98;;
42096;SDS011;27754;45.414;11.084;2023-04-15T14:40:23;4.10;;;1.33;;
42096;SDS011;27754;45.414;11.084;2023-04-15T14:42:51;3.05;;;1.20;;
42096;SDS011;27754;45.414;11.084;2023-04-15T14:45:17;4.90;;;1.70;;
42096;SDS011;27754;45.414;11.084;2023-04-15T14:47:45;3.63;;;1.10;;
42096;SDS011;27754;45.414;11.084;2023-04-15T14:50:12;2.58;;;1.40;;
42096;SDS011;27754;45.414;11.084;2023-04-15T14:52:39;3.30;;;1.67;;
42096;SDS011;27754;45.414;11.084;2023-04-15T14:55:10;3.15;;;1.60;;
42096;SDS011;27754;45.414;11.084;2023-04-15T14:57:38;3.05;;;1.48;;
42096;SDS011;27754;45.414;11.084;2023-04-15T15:00:07;5.07;;;2.08;;
42096;SDS011;27754;45.414;11.084;2023-04-15T15:02:36;3.25;;;1.67;;